createdAt,value
2019-01-27T00:01:03.502Z,1.40
2019-01-27T00:03:31.193Z,1.30
2019-01-27T00:05:59.111Z,1.10
2019-01-27T00:08:26.799Z,1.10
2019-01-27T00:10:54.354Z,1.20
2019-01-27T00:13:22.349Z,1.20
2019-01-27T00:15:49.948Z,1.40
2019-01-27T00:18:35.863Z,1.10
2019-01-27T00:21:21.687Z,1.30
2019-01-27T00:23:48.987Z,1.00
2019-01-27T00:26:16.894Z,1.43
2019-01-27T00:28:44.381Z,1.17
2019-01-27T00:31:11.935Z,1.20
2019-01-27T00:33:39.484Z,0.93
2019-01-27T00:36:07.149Z,1.07
2019-01-27T00:38:34.713Z,0.90
2019-01-27T00:41:02.457Z,1.20
2019-01-27T00:43:30.401Z,0.80
2019-01-27T00:45:58.351Z,0.70
2019-01-27T00:48:25.731Z,0.77
2019-01-27T00:50:53.513Z,0.93
2019-01-27T00:53:21.013Z,0.80
2019-01-27T00:55:48.793Z,0.80
2019-01-27T00:58:16.461Z,0.80
2019-01-27T01:00:47.129Z,0.70
2019-01-27T01:03:15.649Z,0.60
2019-01-27T01:05:43.551Z,0.80
2019-01-27T01:08:11.021Z,0.80
2019-01-27T01:10:38.520Z,0.83
2019-01-27T01:13:09.014Z,1.00
2019-01-27T01:15:36.468Z,0.80
2019-01-27T01:18:05.630Z,0.80
2019-01-27T01:20:33.220Z,1.00
2019-01-27T01:23:01.587Z,0.90
2019-01-27T01:25:29.481Z,0.60
2019-01-27T01:27:56.816Z,0.90
2019-01-27T01:30:26.616Z,0.70
2019-01-27T01:32:54.332Z,0.83
2019-01-27T01:35:22.006Z,0.80
2019-01-27T01:37:49.741Z,0.80
2019-01-27T01:40:17.359Z,0.70
2019-01-27T01:42:44.886Z,0.87
2019-01-27T01:45:17.967Z,0.77
2019-01-27T01:47:45.316Z,0.80
2019-01-27T01:50:13.461Z,0.80
2019-01-27T01:52:40.816Z,0.60
2019-01-27T01:55:09.616Z,1.17
2019-01-27T01:57:37.309Z,0.70
2019-01-27T02:00:06.482Z,0.70
2019-01-27T02:02:34.228Z,0.60
2019-01-27T02:05:02.049Z,0.77
2019-01-27T02:07:29.894Z,0.90
2019-01-27T02:09:57.607Z,0.63
2019-01-27T02:12:25.499Z,0.80
2019-01-27T02:14:52.999Z,0.57
2019-01-27T02:17:21.583Z,0.80
2019-01-27T02:19:49.159Z,0.40
2019-01-27T02:22:16.697Z,0.63
2019-01-27T02:24:44.272Z,0.60
2019-01-27T02:27:11.859Z,0.67
2019-01-27T02:29:39.449Z,0.60
2019-01-27T02:32:07.393Z,0.60
2019-01-27T02:34:34.874Z,0.60
2019-01-27T02:37:02.252Z,0.50
2019-01-27T02:39:29.905Z,0.60
2019-01-27T02:41:57.629Z,0.50
2019-01-27T02:44:25.315Z,0.60
2019-01-27T02:46:52.970Z,0.50
2019-01-27T02:49:20.286Z,0.60
2019-01-27T02:51:48.114Z,0.67
2019-01-27T02:54:15.580Z,0.60
2019-01-27T02:56:42.966Z,0.60
2019-01-27T02:59:10.257Z,0.53
2019-01-27T03:01:38.424Z,0.60
2019-01-27T03:04:06.268Z,0.60
2019-01-27T03:06:56.561Z,0.60
2019-01-27T03:09:32.512Z,0.60
2019-01-27T03:12:00.039Z,0.70
2019-01-27T03:14:27.791Z,0.50
2019-01-27T03:16:55.335Z,0.73
2019-01-27T03:19:24.399Z,0.50
2019-01-27T03:21:52.932Z,0.60
2019-01-27T03:24:20.848Z,0.60
2019-01-27T03:26:49.589Z,0.60
2019-01-27T03:29:17.785Z,0.50
2019-01-27T03:31:45.999Z,0.60
2019-01-27T03:34:14.198Z,0.50
2019-01-27T03:36:41.736Z,0.60
2019-01-27T03:39:10.739Z,0.60
2019-01-27T03:41:38.514Z,0.50
2019-01-27T03:44:06.330Z,0.50
2019-01-27T03:46:33.860Z,0.63
2019-01-27T03:49:01.625Z,0.50
2019-01-27T03:51:29.094Z,0.50
2019-01-27T03:53:56.687Z,0.60
2019-01-27T03:56:24.590Z,0.47
2019-01-27T03:58:51.917Z,0.50
2019-01-27T04:01:19.495Z,0.50
2019-01-27T04:03:46.821Z,0.50
2019-01-27T04:06:14.491Z,0.60
2019-01-27T04:08:43.259Z,0.70
2019-01-27T04:11:11.030Z,0.60
2019-01-27T04:13:38.519Z,0.57
2019-01-27T04:16:05.905Z,0.90
2019-01-27T04:18:35.682Z,0.50
2019-01-27T04:21:03.534Z,0.57
2019-01-27T04:23:31.206Z,0.50
2019-01-27T04:25:58.953Z,0.50
2019-01-27T04:28:26.450Z,0.50
2019-01-27T04:30:53.976Z,0.50
2019-01-27T04:33:21.334Z,0.60
2019-01-27T04:35:48.805Z,0.50
2019-01-27T04:38:17.683Z,0.50
2019-01-27T04:40:45.909Z,0.53
2019-01-27T04:43:13.897Z,0.87
2019-01-27T04:45:45.637Z,0.50
2019-01-27T04:48:13.129Z,0.40
2019-01-27T04:50:40.393Z,0.57
2019-01-27T04:53:08.058Z,0.50
2019-01-27T04:55:35.616Z,0.50
2019-01-27T04:58:07.945Z,0.50
2019-01-27T05:00:35.936Z,0.70
2019-01-27T05:03:23.711Z,0.50
2019-01-27T05:05:51.194Z,0.50
2019-01-27T05:08:19.187Z,0.60
2019-01-27T05:10:46.978Z,0.60
2019-01-27T05:13:15.463Z,0.60
2019-01-27T05:15:43.469Z,0.60
2019-01-27T05:18:11.404Z,0.67
2019-01-27T05:20:39.394Z,0.67
2019-01-27T05:23:07.116Z,0.87
2019-01-27T05:25:34.545Z,0.97
2019-01-27T05:28:02.415Z,0.63
2019-01-27T05:30:29.850Z,0.60
2019-01-27T05:32:57.381Z,0.70
2019-01-27T05:35:25.095Z,0.80
2019-01-27T05:37:52.586Z,0.73
2019-01-27T05:40:20.349Z,0.90
2019-01-27T05:42:47.828Z,0.90
2019-01-27T05:45:15.218Z,0.80
2019-01-27T05:47:43.068Z,0.60
2019-01-27T05:50:11.936Z,0.60
2019-01-27T05:52:39.551Z,0.60
2019-01-27T05:55:07.902Z,0.50
2019-01-27T05:57:35.550Z,0.70
2019-01-27T06:00:05.697Z,0.60
2019-01-27T06:02:33.380Z,0.60
2019-01-27T06:05:01.003Z,0.60
2019-01-27T06:07:28.816Z,0.70
2019-01-27T06:09:56.294Z,0.60
2019-01-27T06:12:24.137Z,0.50
2019-01-27T06:14:51.609Z,0.70
2019-01-27T06:17:19.555Z,0.50
2019-01-27T06:19:46.936Z,0.90
2019-01-27T06:22:14.602Z,0.50
2019-01-27T06:24:42.161Z,0.50
2019-01-27T06:27:10.118Z,0.50
2019-01-27T06:29:37.865Z,0.50
2019-01-27T06:32:05.498Z,0.50
2019-01-27T06:34:33.366Z,0.60
2019-01-27T06:37:01.324Z,0.70
2019-01-27T06:39:29.152Z,0.60
2019-01-27T06:41:57.199Z,0.60
2019-01-27T06:44:25.076Z,0.50
2019-01-27T06:46:52.764Z,0.67
2019-01-27T06:49:20.578Z,0.60
2019-01-27T06:51:48.590Z,0.90
2019-01-27T06:54:16.336Z,0.50
2019-01-27T06:56:44.028Z,0.57
2019-01-27T06:59:28.902Z,0.60
2019-01-27T07:02:29.601Z,0.60
2019-01-27T07:05:17.315Z,0.63
2019-01-27T07:08:16.719Z,0.60
2019-01-27T07:11:12.710Z,0.60
2019-01-27T07:13:58.867Z,0.60
2019-01-27T07:16:46.347Z,26.93
2019-01-27T07:19:39.603Z,24.80
2019-01-27T07:22:32.644Z,13.33
2019-01-27T07:25:10.688Z,5.80
2019-01-27T07:27:51.623Z,4.27
2019-01-27T07:30:45.036Z,1.37
2019-01-27T07:33:42.508Z,1.13
2019-01-27T07:36:41.974Z,0.77
2019-01-27T07:39:38.565Z,0.90
2019-01-27T07:42:14.436Z,17.40
2019-01-27T07:44:51.365Z,12.60
2019-01-27T07:47:29.735Z,6.90
2019-01-27T07:50:28.489Z,3.33
2019-01-27T07:53:04.800Z,2.37
2019-01-27T07:55:55.262Z,2.07
2019-01-27T07:58:49.274Z,1.30
2019-01-27T08:01:35.183Z,1.10
2019-01-27T08:04:34.558Z,0.80
2019-01-27T08:07:20.371Z,0.70
2019-01-27T08:10:19.615Z,0.90
2019-01-27T08:13:07.105Z,1.10
2019-01-27T08:16:01.564Z,0.80
2019-01-27T08:18:49.648Z,0.83
2019-01-27T08:21:29.090Z,0.70
2019-01-27T08:24:34.382Z,0.70
2019-01-27T08:27:30.388Z,1.00
2019-01-27T08:30:17.541Z,31.13
2019-01-27T08:33:11.167Z,29.60
2019-01-27T08:35:55.957Z,11.80
2019-01-27T08:38:30.285Z,4.93
2019-01-27T08:41:08.099Z,3.23
2019-01-27T08:43:54.318Z,1.90
2019-01-27T08:46:40.292Z,1.30
2019-01-27T08:49:07.813Z,0.97
2019-01-27T08:51:35.498Z,0.80
2019-01-27T08:54:03.976Z,0.90
2019-01-27T08:56:31.824Z,0.87
2019-01-27T08:58:59.731Z,0.97
2019-01-27T09:01:40.055Z,0.83
2019-01-27T09:04:16.437Z,1.10
2019-01-27T09:07:09.802Z,1.10
2019-01-27T09:09:50.874Z,1.27
2019-01-27T09:12:43.795Z,1.57
2019-01-27T09:15:31.113Z,18.20
2019-01-27T09:18:17.138Z,17.90
2019-01-27T09:21:16.526Z,8.20
2019-01-27T09:24:02.343Z,4.40
2019-01-27T09:26:44.822Z,2.50
2019-01-27T09:29:20.193Z,2.17
2019-01-27T09:32:06.257Z,1.40
2019-01-27T09:34:53.491Z,1.40
2019-01-27T09:37:39.441Z,1.50
2019-01-27T09:40:29.373Z,1.23
2019-01-27T09:43:28.975Z,1.13
2019-01-27T09:46:14.849Z,1.53
2019-01-27T09:49:01.868Z,1.33
2019-01-27T09:51:47.585Z,1.40
2019-01-27T09:54:37.506Z,1.23
2019-01-27T09:57:23.339Z,1.00
2019-01-27T10:00:11.031Z,0.90
2019-01-27T10:03:01.470Z,0.93
2019-01-27T10:05:54.685Z,0.93
2019-01-27T10:08:41.578Z,1.53
2019-01-27T10:11:31.691Z,1.10
2019-01-27T10:14:30.753Z,12.37
2019-01-27T10:17:10.586Z,19.77
2019-01-27T10:19:57.048Z,7.10
2019-01-27T10:22:45.007Z,2.90
2019-01-27T10:25:43.014Z,1.33
2019-01-27T10:28:22.519Z,1.23
2019-01-27T10:31:08.401Z,1.30
2019-01-27T10:33:55.512Z,0.90
2019-01-27T10:36:41.388Z,0.87
2019-01-27T10:39:15.113Z,7.27
2019-01-27T10:42:02.143Z,13.93
2019-01-27T10:44:59.208Z,3.70
2019-01-27T10:47:43.844Z,2.00
2019-01-27T10:50:33.185Z,0.90
2019-01-27T10:53:12.092Z,1.20
2019-01-27T10:55:54.507Z,1.17
2019-01-27T10:58:57.151Z,1.20
2019-01-27T11:01:43.114Z,0.90
2019-01-27T11:04:39.440Z,1.10
2019-01-27T11:07:26.399Z,1.10
2019-01-27T11:10:32.051Z,1.00
2019-01-27T11:13:07.832Z,1.17
2019-01-27T11:15:54.326Z,0.70
2019-01-27T11:18:28.712Z,0.90
2019-01-27T11:21:06.278Z,0.80
2019-01-27T11:23:53.546Z,0.90
2019-01-27T11:26:28.342Z,1.10
2019-01-27T11:29:18.218Z,1.07
2019-01-27T11:32:04.189Z,0.90
2019-01-27T11:34:42.362Z,21.20
2019-01-27T11:37:30.091Z,14.90
2019-01-27T11:40:24.817Z,3.97
2019-01-27T11:43:14.997Z,1.63
2019-01-27T11:46:04.779Z,1.30
2019-01-27T11:48:58.209Z,1.50
2019-01-27T11:51:31.503Z,0.80
2019-01-27T11:53:59.724Z,1.03
2019-01-27T11:56:27.380Z,0.67
2019-01-27T11:58:55.260Z,0.70
2019-01-27T12:01:22.832Z,0.90
2019-01-27T12:03:50.933Z,0.97
2019-01-27T12:06:18.714Z,1.00
2019-01-27T12:08:46.118Z,0.87
2019-01-27T12:11:13.803Z,0.93
2019-01-27T12:13:42.029Z,1.40
2019-01-27T12:16:09.826Z,1.03
2019-01-27T12:18:37.645Z,1.20
2019-01-27T12:21:05.415Z,1.17
2019-01-27T12:23:32.967Z,0.73
2019-01-27T12:26:01.930Z,1.13
2019-01-27T12:28:30.804Z,0.90
2019-01-27T12:30:58.347Z,1.10
2019-01-27T12:33:26.353Z,1.20
2019-01-27T12:35:54.397Z,1.00
2019-01-27T12:38:21.892Z,1.10
2019-01-27T12:40:49.418Z,1.27
2019-01-27T12:43:17.788Z,1.10
2019-01-27T12:45:46.083Z,0.90
2019-01-27T12:48:15.040Z,6.67
2019-01-27T12:50:44.661Z,4.10
2019-01-27T12:53:12.416Z,2.10
2019-01-27T12:55:42.016Z,1.23
2019-01-27T12:58:10.347Z,1.03
2019-01-27T13:00:44.564Z,1.20
2019-01-27T13:03:12.114Z,1.03
2019-01-27T13:05:39.540Z,1.00
2019-01-27T13:08:07.492Z,1.40
2019-01-27T13:10:34.912Z,1.53
2019-01-27T13:13:02.550Z,1.10
2019-01-27T13:15:29.987Z,1.53
2019-01-27T13:17:57.523Z,0.90
2019-01-27T13:20:25.744Z,1.10
2019-01-27T13:22:53.433Z,0.77
2019-01-27T13:25:21.146Z,0.87
2019-01-27T13:27:49.118Z,1.20
2019-01-27T13:30:18.140Z,0.93
2019-01-27T13:32:46.053Z,0.93
2019-01-27T13:35:14.136Z,0.90
2019-01-27T13:37:41.534Z,1.27
2019-01-27T13:40:17.199Z,1.23
2019-01-27T13:42:44.913Z,1.10
2019-01-27T13:45:15.312Z,1.10
2019-01-27T13:47:42.817Z,1.30
2019-01-27T13:50:10.547Z,1.20
2019-01-27T13:52:38.137Z,1.30
2019-01-27T13:55:08.539Z,1.33
2019-01-27T13:57:36.334Z,1.00
2019-01-27T14:00:06.606Z,1.63
2019-01-27T14:02:34.150Z,1.37
2019-01-27T14:05:02.762Z,0.80
2019-01-27T14:07:30.635Z,0.90
2019-01-27T14:09:59.150Z,0.80
2019-01-27T14:12:27.714Z,0.93
2019-01-27T14:14:55.394Z,1.10
2019-01-27T14:17:23.236Z,1.00
2019-01-27T14:19:51.427Z,1.30
2019-01-27T14:22:19.994Z,1.13
2019-01-27T14:24:47.623Z,1.13
2019-01-27T14:27:16.449Z,1.50
2019-01-27T14:29:46.044Z,1.40
2019-01-27T14:32:13.923Z,1.53
2019-01-27T14:34:42.429Z,1.70
2019-01-27T14:37:12.732Z,1.90
2019-01-27T14:39:40.684Z,1.83
2019-01-27T14:42:08.876Z,1.27
2019-01-27T14:44:36.462Z,1.30
2019-01-27T14:47:04.407Z,1.10
2019-01-27T14:49:32.380Z,0.90
2019-01-27T14:52:00.336Z,1.00
2019-01-27T14:54:28.748Z,1.20
2019-01-27T14:56:56.980Z,1.27
2019-01-27T14:59:25.208Z,1.00
2019-01-27T15:01:53.506Z,1.23
2019-01-27T15:04:21.117Z,1.00
2019-01-27T15:06:48.856Z,0.90
2019-01-27T15:09:19.668Z,0.90
2019-01-27T15:11:47.283Z,1.10
2019-01-27T15:14:15.211Z,2.00
2019-01-27T15:16:42.897Z,1.20
2019-01-27T15:19:10.925Z,1.10
2019-01-27T15:21:38.663Z,0.97
2019-01-27T15:24:07.121Z,1.53
2019-01-27T15:26:36.587Z,1.20
2019-01-27T15:29:04.858Z,1.30
2019-01-27T15:31:32.602Z,1.20
2019-01-27T15:34:15.961Z,1.90
2019-01-27T15:36:45.107Z,1.93
2019-01-27T15:39:12.548Z,1.60
2019-01-27T15:41:40.910Z,2.03
2019-01-27T15:44:10.135Z,1.30
2019-01-27T15:46:39.111Z,1.57
2019-01-27T15:49:09.173Z,2.40
2019-01-27T15:51:37.859Z,2.30
2019-01-27T15:54:06.598Z,2.47
2019-01-27T15:56:34.762Z,2.20
2019-01-27T15:59:03.065Z,1.40
2019-01-27T16:01:31.877Z,2.07
2019-01-27T16:03:59.886Z,2.20
2019-01-27T16:06:27.609Z,2.00
2019-01-27T16:08:56.608Z,1.93
2019-01-27T16:11:24.516Z,1.93
2019-01-27T16:13:53.214Z,2.37
2019-01-27T16:16:21.311Z,2.03
2019-01-27T16:18:48.952Z,2.50
2019-01-27T16:21:17.941Z,2.30
2019-01-27T16:23:55.701Z,2.43
2019-01-27T16:26:25.783Z,2.00
2019-01-27T16:28:53.382Z,1.97
2019-01-27T16:31:39.870Z,1.87
2019-01-27T16:34:33.987Z,2.27
2019-01-27T16:37:02.082Z,2.23
2019-01-27T16:39:29.777Z,2.27
2019-01-27T16:41:58.311Z,2.23
2019-01-27T16:44:30.322Z,2.50
2019-01-27T16:46:58.128Z,2.57
2019-01-27T16:49:26.003Z,2.50
2019-01-27T16:51:54.552Z,2.47
2019-01-27T16:54:22.487Z,2.10
2019-01-27T16:56:50.734Z,2.10
2019-01-27T16:59:18.279Z,2.87
2019-01-27T17:01:47.035Z,2.00
2019-01-27T17:04:16.166Z,1.50
2019-01-27T17:06:43.916Z,1.40
2019-01-27T17:09:11.887Z,2.50
2019-01-27T17:11:40.047Z,1.73
2019-01-27T17:14:07.799Z,1.80
2019-01-27T17:16:35.487Z,1.97
2019-01-27T17:19:05.149Z,1.80
2019-01-27T17:21:33.623Z,1.80
2019-01-27T17:24:01.590Z,2.53
2019-01-27T17:26:29.225Z,2.80
2019-01-27T17:28:56.697Z,2.47
2019-01-27T17:31:24.839Z,3.10
2019-01-27T17:33:52.444Z,2.60
2019-01-27T17:36:20.697Z,3.23
2019-01-27T17:38:50.827Z,2.57
2019-01-27T17:41:18.374Z,2.40
2019-01-27T17:43:45.980Z,2.10
2019-01-27T17:46:13.349Z,2.93
2019-01-27T17:48:42.268Z,2.70
2019-01-27T17:51:10.042Z,2.63
2019-01-27T17:53:54.164Z,2.30
2019-01-27T17:56:21.727Z,2.00
2019-01-27T17:59:17.815Z,1.80
2019-01-27T18:02:12.837Z,1.97
2019-01-27T18:04:45.731Z,2.30
2019-01-27T18:07:43.239Z,2.13
2019-01-27T18:10:23.301Z,1.93
2019-01-27T18:13:10.690Z,1.90
2019-01-27T18:15:39.285Z,1.73
2019-01-27T18:18:11.258Z,2.27
2019-01-27T18:20:39.472Z,2.17
2019-01-27T18:23:07.817Z,2.40
2019-01-27T18:25:36.501Z,2.30
2019-01-27T18:28:04.138Z,2.10
2019-01-27T18:30:33.852Z,2.20
2019-01-27T18:33:02.145Z,2.30
2019-01-27T18:35:29.608Z,2.50
2019-01-27T18:37:57.344Z,2.30
2019-01-27T18:40:25.558Z,2.43
2019-01-27T18:42:52.870Z,2.67
2019-01-27T18:45:20.677Z,3.00
2019-01-27T18:47:48.196Z,3.27
2019-01-27T18:50:17.006Z,2.43
2019-01-27T18:52:44.481Z,3.17
2019-01-27T18:55:35.859Z,2.77
2019-01-27T18:58:11.382Z,1.97
2019-01-27T19:01:02.262Z,2.97
2019-01-27T19:03:52.528Z,2.80
2019-01-27T19:06:40.104Z,2.63
2019-01-27T19:09:28.643Z,2.77
2019-01-27T19:12:16.187Z,3.00
2019-01-27T19:14:52.711Z,2.80
2019-01-27T19:17:29.364Z,3.43
2019-01-27T19:20:35.221Z,2.70
2019-01-27T19:23:22.368Z,2.07
2019-01-27T19:26:08.324Z,2.03
2019-01-27T19:29:02.371Z,2.20
2019-01-27T19:31:50.103Z,2.53
2019-01-27T19:34:39.123Z,2.80
2019-01-27T19:37:29.000Z,2.83
2019-01-27T19:40:06.240Z,2.70
2019-01-27T19:42:59.607Z,3.00
2019-01-27T19:45:45.538Z,2.80
2019-01-27T19:48:41.966Z,3.20
2019-01-27T19:51:29.282Z,3.20
2019-01-27T19:54:16.214Z,3.43
2019-01-27T19:57:12.986Z,4.20
2019-01-27T19:59:59.592Z,2.80
2019-01-27T20:02:44.799Z,2.77
2019-01-27T20:05:28.122Z,3.20
2019-01-27T20:08:23.883Z,3.17
2019-01-27T20:11:10.994Z,3.10
2019-01-27T20:14:00.247Z,2.40
2019-01-27T20:16:47.142Z,2.13
2019-01-27T20:19:31.058Z,2.23
2019-01-27T20:22:06.159Z,2.67
2019-01-27T20:24:48.029Z,2.60
2019-01-27T20:27:53.081Z,2.90
2019-01-27T20:30:43.194Z,2.10
2019-01-27T20:33:48.578Z,2.70
2019-01-27T20:36:34.920Z,2.63
2019-01-27T20:39:12.764Z,3.00
2019-01-27T20:41:50.090Z,2.70
2019-01-27T20:44:25.383Z,2.20
2019-01-27T20:46:58.230Z,2.90
2019-01-27T20:49:50.172Z,2.80
2019-01-27T20:52:50.136Z,3.03
2019-01-27T20:55:40.729Z,3.87
2019-01-27T20:58:34.045Z,3.33
2019-01-27T21:01:09.594Z,3.37
2019-01-27T21:03:44.799Z,3.57
2019-01-27T21:06:38.277Z,3.37
2019-01-27T21:09:17.677Z,3.83
2019-01-27T21:12:05.355Z,3.63
2019-01-27T21:14:46.448Z,3.23
2019-01-27T21:17:23.843Z,3.47
2019-01-27T21:19:55.273Z,3.73
2019-01-27T21:22:23.132Z,4.10
2019-01-27T21:24:50.368Z,3.80
2019-01-27T21:27:18.275Z,4.80
2019-01-27T21:29:45.824Z,4.40
2019-01-27T21:32:14.015Z,4.10
2019-01-27T21:34:41.714Z,4.17
2019-01-27T21:37:09.844Z,4.17
2019-01-27T21:39:38.693Z,4.13
2019-01-27T21:42:08.030Z,4.83
2019-01-27T21:44:36.406Z,4.50
2019-01-27T21:47:04.603Z,5.70
2019-01-27T21:49:32.485Z,3.90
2019-01-27T21:52:00.890Z,4.97
2019-01-27T21:54:28.583Z,5.00
2019-01-27T21:56:56.246Z,4.87
2019-01-27T21:59:23.987Z,4.07
2019-01-27T22:01:51.313Z,4.70
2019-01-27T22:04:19.105Z,4.97
2019-01-27T22:06:47.351Z,4.20
2019-01-27T22:09:15.418Z,4.00
2019-01-27T22:11:50.016Z,4.13
2019-01-27T22:14:18.245Z,4.53
2019-01-27T22:16:46.018Z,3.20
2019-01-27T22:19:13.588Z,3.30
2019-01-27T22:21:41.189Z,4.37
2019-01-27T22:24:09.312Z,3.87
2019-01-27T22:26:37.070Z,2.93
2019-01-27T22:29:04.454Z,3.20
2019-01-27T22:31:32.366Z,3.00
2019-01-27T22:34:01.749Z,3.13
2019-01-27T22:36:29.774Z,3.30
2019-01-27T22:38:57.662Z,3.17
2019-01-27T22:41:25.024Z,3.40
2019-01-27T22:43:52.822Z,3.17
2019-01-27T22:46:26.344Z,2.60
2019-01-27T22:48:53.809Z,3.90
2019-01-27T22:51:21.498Z,3.57
2019-01-27T22:53:49.571Z,3.10
2019-01-27T22:56:17.726Z,2.73
2019-01-27T22:58:45.112Z,2.13
2019-01-27T23:01:17.491Z,2.83
2019-01-27T23:03:47.340Z,2.53
2019-01-27T23:06:15.228Z,3.10
2019-01-27T23:08:43.328Z,2.80
2019-01-27T23:11:11.616Z,3.03
2019-01-27T23:13:39.978Z,2.60
2019-01-27T23:16:08.513Z,2.70
2019-01-27T23:18:36.165Z,2.33
2019-01-27T23:21:04.359Z,2.80
2019-01-27T23:23:35.112Z,3.20
2019-01-27T23:26:02.980Z,3.30
2019-01-27T23:28:30.547Z,2.37
2019-01-27T23:30:57.838Z,2.60
2019-01-27T23:33:25.470Z,2.63
2019-01-27T23:35:52.916Z,2.70
2019-01-27T23:38:20.305Z,2.77
2019-01-27T23:40:47.777Z,2.93
2019-01-27T23:43:14.935Z,2.37
2019-01-27T23:45:42.309Z,2.50
2019-01-27T23:48:09.973Z,2.13
2019-01-27T23:50:37.645Z,2.37
2019-01-27T23:53:04.994Z,2.30
2019-01-27T23:55:32.670Z,2.77
2019-01-27T23:58:00.320Z,2.00
